Time;durP1;ratioP1;P1;durP2;ratioP2;P2;SDS_P1;SDS_P2;PMS_P1;PMS_P2;Temp;Humidity;BMP_temperature;BMP_pressure;BME280_temperature;BME280_humidity;BME280_pressure;Samples;Min_cycle;Max_cycle;Signal;HPM_P1;HPM_P2
2021/11/23 00:01:33;;;;;;;6.45;3.53;;;;;;;3.87;96.80;96978.94;5202979;56;20127;-78
2021/11/23 00:06:37;;;;;;;3.78;3.25;;;;;;;3.75;97.78;96982.94;5202625;57;20128;-73
2021/11/23 00:11:39;;;;;;;7.80;3.60;;;;;;;3.68;96.88;96993.91;5202367;56;20127;-75
2021/11/23 00:16:42;;;;;;;3.55;2.90;;;;;;;3.82;96.96;96995.78;5202193;57;20694;-75
2021/11/23 00:21:44;;;;;;;2.80;2.47;;;;;;;3.72;97.66;97000.13;5202519;56;20708;-75
2021/11/23 00:26:47;;;;;;;3.88;3.00;;;;;;;3.72;96.67;96994.66;5202027;57;20635;-76
2021/11/23 00:31:49;;;;;;;2.75;2.38;;;;;;;3.75;96.34;97009.50;5201266;56;20154;-75
2021/11/23 00:36:52;;;;;;;2.75;2.20;;;;;;;3.64;96.05;97004.84;5201863;57;20127;-76
2021/11/23 00:41:54;;;;;;;5.03;3.10;;;;;;;3.59;96.92;97009.97;5201795;56;20145;-75
2021/11/23 00:46:58;;;;;;;5.40;3.90;;;;;;;3.44;96.71;97014.72;5201646;57;20766;-76
2021/11/23 00:52:00;;;;;;;6.82;5.00;;;;;;;3.30;97.06;97003.13;5201914;56;20123;-75
2021/11/23 00:57:04;;;;;;;6.30;3.35;;;;;;;3.43;97.08;97017.88;5201799;57;20201;-76
2021/11/23 01:02:06;;;;;;;4.70;3.20;;;;;;;3.50;96.70;97020.56;5201696;56;20145;-76
2021/11/23 01:07:09;;;;;;;4.57;2.17;;;;;;;3.40;95.44;97019.44;5201352;57;20590;-75
2021/11/23 01:12:12;;;;;;;3.92;3.15;;;;;;;3.32;94.74;97025.34;5202098;56;20605;-75
2021/11/23 01:17:16;;;;;;;1.75;1.65;;;;;;;3.24;95.85;97032.78;5201267;57;20283;-76
2021/11/23 01:22:19;;;;;;;2.65;2.20;;;;;;;3.27;95.36;97034.72;5201523;56;20128;-76
2021/11/23 01:27:21;;;;;;;2.53;1.75;;;;;;;3.20;94.42;97032.03;5201120;57;20128;-76
2021/11/23 01:32:24;;;;;;;4.35;3.53;;;;;;;3.15;94.32;97037.09;5201435;56;20132;-76
2021/11/23 01:37:27;;;;;;;4.85;2.88;;;;;;;3.15;94.67;97032.44;5200943;57;20124;-75
2021/11/23 01:42:29;;;;;;;3.10;2.33;;;;;;;3.12;94.44;97029.72;5200627;56;20140;-75
2021/11/23 01:47:32;;;;;;;3.47;2.90;;;;;;;2.97;94.68;97017.28;5202025;56;20127;-74
2021/11/23 01:52:34;;;;;;;2.22;2.03;;;;;;;3.02;95.22;97025.88;5201605;57;20143;-75
2021/11/23 01:57:38;;;;;;;3.78;3.10;;;;;;;3.07;95.67;97036.38;5201310;56;20128;-75
2021/11/23 02:02:40;;;;;;;4.50;3.55;;;;;;;2.86;94.69;97039.94;5203160;57;20173;-75
2021/11/23 02:07:43;;;;;;;3.78;2.78;;;;;;;2.94;95.24;97026.28;5219395;56;20141;-75
2021/11/23 02:12:47;;;;;;;2.83;2.55;;;;;;;2.87;94.73;97036.03;5212674;57;20137;-75
2021/11/23 02:17:49;;;;;;;3.08;2.70;;;;;;;2.78;95.16;97029.44;5206766;57;20588;-75
2021/11/23 02:22:52;;;;;;;4.20;3.42;;;;;;;2.71;94.38;97032.94;5207475;57;20141;-75
2021/11/23 02:27:54;;;;;;;6.72;4.15;;;;;;;2.66;94.66;97019.72;5206271;56;20115;-75
2021/11/23 02:32:56;;;;;;;3.40;2.92;;;;;;;2.75;95.09;97031.03;5203316;57;20132;-77
2021/11/23 02:37:59;;;;;;;5.05;2.60;;;;;;;2.61;95.43;97028.31;5200534;56;20114;-76
2021/11/23 02:43:02;;;;;;;4.28;2.63;;;;;;;2.55;95.35;97035.34;5199690;57;20270;-76
2021/11/23 02:48:08;;;;;;;3.10;2.35;;;;;;;2.56;96.03;97047.81;5199752;57;20118;-76
2021/11/23 02:53:11;;;;;;;3.30;2.80;;;;;;;2.54;95.63;97038.44;5199415;57;20163;-76
2021/11/23 02:58:13;;;;;;;4.18;2.67;;;;;;;2.55;94.76;97046.25;5199577;56;20133;-75
2021/11/23 03:03:16;;;;;;;4.88;2.70;;;;;;;2.53;95.49;97051.34;5206933;45;20123;-75
2021/11/23 03:08:19;;;;;;;2.78;2.45;;;;;;;2.43;95.23;97045.88;5198753;57;20123;-72
2021/11/23 03:13:21;;;;;;;3.10;2.78;;;;;;;2.37;95.46;97048.22;5199736;56;20119;-72
2021/11/23 03:18:24;;;;;;;3.22;2.88;;;;;;;2.46;95.61;97043.16;5198941;57;20575;-72
2021/11/23 03:23:26;;;;;;;3.95;2.80;;;;;;;2.36;95.63;97043.16;5205842;56;20123;-72
2021/11/23 03:28:28;;;;;;;2.50;2.30;;;;;;;2.35;95.13;97034.22;5217138;56;20122;-72
2021/11/23 03:33:31;;;;;;;4.50;3.20;;;;;;;2.32;94.99;97043.16;5219745;56;20118;-72
2021/11/23 03:38:33;;;;;;;6.63;3.95;;;;;;;2.30;94.95;97042.78;5219556;56;20136;-73
2021/11/23 03:43:35;;;;;;;6.85;3.88;;;;;;;2.46;94.50;97037.69;5219133;56;20122;-72
2021/11/23 03:48:38;;;;;;;5.43;4.05;;;;;;;2.20;95.23;97038.09;5219365;56;20675;-72
2021/11/23 03:53:40;;;;;;;3.92;3.08;;;;;;;2.30;95.15;97026.41;5218540;56;20118;-72
2021/11/23 03:58:43;;;;;;;4.30;3.15;;;;;;;2.19;95.14;97045.50;5218924;56;20131;-71
2021/11/23 04:03:45;;;;;;;3.67;2.90;;;;;;;1.85;96.96;97043.53;5219330;56;20851;-72
2021/11/23 04:08:48;;;;;;;4.30;3.45;;;;;;;1.66;97.75;97044.66;5222426;56;20232;-72
2021/11/23 04:13:51;;;;;;;4.78;3.05;;;;;;;1.68;98.25;97055.97;5222204;56;20126;-74
2021/11/23 04:18:54;;;;;;;3.03;2.72;;;;;;;1.47;98.57;97058.63;5222027;56;20135;-72
2021/11/23 04:23:56;;;;;;;2.97;2.40;;;;;;;1.41;99.02;97062.88;5222396;56;20122;-72
2021/11/23 04:28:58;;;;;;;3.03;2.35;;;;;;;1.39;99.02;97062.50;5221856;56;20145;-72
2021/11/23 04:34:00;;;;;;;4.47;3.08;;;;;;;1.28;99.55;97058.97;5221976;56;20131;-72
2021/11/23 04:39:04;;;;;;;2.50;2.28;;;;;;;1.21;100.00;97056.22;5221773;56;20698;-72
2021/11/23 04:44:09;;;;;;;2.38;2.17;;;;;;;1.08;100.00;97055.78;5221792;56;20122;-72
2021/11/23 04:49:12;;;;;;;4.97;2.72;;;;;;;1.08;100.00;97065.88;5222032;56;20140;-72
2021/11/23 04:54:14;;;;;;;3.50;2.90;;;;;;;1.08;100.00;97074.84;5221691;56;20136;-72
2021/11/23 04:59:16;;;;;;;2.58;2.30;;;;;;;1.10;100.00;97074.44;5221577;56;20121;-72
2021/11/23 05:04:19;;;;;;;3.05;2.63;;;;;;;1.03;100.00;97082.56;5221407;56;20131;-72
2021/11/23 05:09:21;;;;;;;3.35;2.67;;;;;;;0.95;100.00;97086.44;5221462;56;20568;-72
2021/11/23 05:14:24;;;;;;;2.65;2.25;;;;;;;0.89;100.00;97083.28;5221261;56;20671;-72
2021/11/23 05:19:27;;;;;;;3.47;2.75;;;;;;;0.84;100.00;97082.88;5221020;56;20117;-73
2021/11/23 05:24:29;;;;;;;2.22;2.03;;;;;;;0.83;100.00;97095.69;5221008;56;20634;-73
2021/11/23 05:29:32;;;;;;;6.85;4.43;;;;;;;0.69;100.00;97096.38;5221159;56;20595;-72
2021/11/23 05:34:34;;;;;;;5.35;3.08;;;;;;;0.63;100.00;97100.59;5220705;56;20122;-72
2021/11/23 05:39:47;;;;;;;4.15;3.17;;;;;;;0.62;100.00;97098.25;5220893;56;20118;-72
2021/11/23 05:44:50;;;;;;;1.75;1.52;;;;;;;0.64;100.00;97098.66;5214725;56;20136;-72
2021/11/23 05:49:52;;;;;;;3.15;2.05;;;;;;;0.66;100.00;97096.34;5212569;56;20113;-72
2021/11/23 05:54:54;;;;;;;3.17;2.80;;;;;;;0.65;100.00;97095.59;5220311;56;20140;-72
2021/11/23 05:59:57;;;;;;;3.10;2.22;;;;;;;0.62;100.00;97104.50;5221160;56;20122;-72
2021/11/23 06:05:00;;;;;;;2.15;1.95;;;;;;;0.58;100.00;97108.34;5220356;56;20126;-72
2021/11/23 06:10:03;;;;;;;4.80;3.13;;;;;;;0.53;100.00;97111.41;5220573;56;20122;-72
2021/11/23 06:15:11;;;;;;;4.75;2.75;;;;;;;0.51;100.00;97111.00;5220404;56;20603;-73
2021/11/23 06:20:14;;;;;;;3.13;2.83;;;;;;;0.63;100.00;97113.44;5220675;56;20135;-73
2021/11/23 06:25:16;;;;;;;3.13;2.83;;;;;;;0.94;100.00;97121.00;5209567;56;20136;-74
2021/11/23 06:30:20;;;;;;;3.03;2.67;;;;;;;1.09;99.63;97127.31;5216203;56;20134;-74
2021/11/23 06:35:23;;;;;;;2.88;2.22;;;;;;;1.33;98.18;97127.41;5220576;56;20146;-74
2021/11/23 06:40:25;;;;;;;8.00;3.17;;;;;;;1.23;97.24;97139.06;5220147;56;20676;-72
2021/11/23 06:45:28;;;;;;;3.28;2.58;;;;;;;1.42;97.53;97138.75;5219931;56;20153;-76
2021/11/23 06:50:33;;;;;;;3.28;3.00;;;;;;;1.69;96.78;97157.53;5211975;56;20180;-77
2021/11/23 06:55:36;;;;;;;3.17;2.42;;;;;;;1.85;95.46;97166.94;5220517;56;20136;-76
2021/11/23 07:00:39;;;;;;;4.05;3.08;;;;;;;1.95;94.68;97170.84;5208975;56;20133;-77
2021/11/23 07:05:42;;;;;;;3.05;2.08;;;;;;;1.83;94.84;97182.88;5200519;57;20662;-76
2021/11/23 07:10:58;;;;;;;3.00;2.65;;;;;;;1.89;94.25;97194.97;5198644;57;20224;-77
2021/11/23 07:16:02;;;;;;;5.10;3.92;;;;;;;1.76;93.83;97193.78;5199115;56;20128;-75
2021/11/23 07:21:04;;;;;;;4.57;3.17;;;;;;;1.70;95.08;97206.19;5199394;56;20114;-76
2021/11/23 07:26:29;;;;;;;6.72;5.22;;;;;;;1.45;95.31;97197.91;5199586;56;20228;-76
2021/11/23 07:31:31;;;;;;;4.80;3.47;;;;;;;1.59;95.17;97204.56;5205707;56;20686;-76
2021/11/23 07:36:36;;;;;;;6.00;4.80;;;;;;;1.63;95.17;97205.38;5197190;56;20853;-77
2021/11/23 07:41:39;;;;;;;3.40;2.88;;;;;;;1.82;94.91;97207.78;5199505;57;20118;-76
2021/11/23 07:46:41;;;;;;;6.72;3.83;;;;;;;1.88;93.81;97215.22;5201337;56;20700;-76
2021/11/23 07:51:44;;;;;;;5.70;2.45;;;;;;;1.96;93.67;97205.13;5193568;57;20167;-76
2021/11/23 07:56:46;;;;;;;3.28;2.85;;;;;;;2.19;93.16;97209.06;5202132;57;20141;-76
2021/11/23 08:01:48;;;;;;;5.15;4.05;;;;;;;2.18;92.06;97206.75;5202277;57;20141;-76
2021/11/23 08:06:51;;;;;;;3.33;2.85;;;;;;;2.53;91.38;97201.38;5200410;56;20706;-76
2021/11/23 08:11:53;;;;;;;4.72;2.75;;;;;;;2.79;89.83;97211.13;5201724;57;20123;-76
2021/11/23 08:16:56;;;;;;;3.08;2.53;;;;;;;2.95;88.44;97199.81;5201627;57;20118;-76
2021/11/23 08:21:59;;;;;;;3.50;2.88;;;;;;;3.07;87.56;97213.06;5201589;57;20118;-75
2021/11/23 08:27:01;;;;;;;4.47;3.28;;;;;;;2.40;88.84;97210.31;5201879;57;20154;-78
2021/11/23 08:32:04;;;;;;;6.43;5.03;;;;;;;2.19;90.19;97219.97;5201942;57;20215;-77
2021/11/23 08:37:08;;;;;;;5.30;3.42;;;;;;;2.18;90.71;97214.94;5201461;57;20132;-75
2021/11/23 08:42:11;;;;;;;3.90;3.42;;;;;;;2.26;91.59;97227.44;5201725;57;20871;-76
2021/11/23 08:47:14;;;;;;;5.32;3.78;;;;;;;2.23;91.02;97222.72;5198051;57;20137;-78
2021/11/23 08:52:18;;;;;;;5.60;4.72;;;;;;;2.30;91.74;97220.03;5198276;57;20589;-76
2021/11/23 08:57:21;;;;;;;4.75;3.72;;;;;;;2.39;90.01;97223.16;5198724;57;20114;-76
2021/11/23 09:02:23;;;;;;;6.72;5.05;;;;;;;2.52;89.00;97229.81;5201123;56;20127;-76
2021/11/23 09:07:26;;;;;;;5.40;4.00;;;;;;;2.51;90.04;97225.50;5199270;57;20123;-75
2021/11/23 09:12:28;;;;;;;5.32;3.33;;;;;;;2.75;89.56;97241.16;5200115;56;20151;-76
2021/11/23 09:17:30;;;;;;;4.70;3.28;;;;;;;3.07;87.54;97243.88;5201026;57;20119;-77
2021/11/23 09:22:33;;;;;;;4.40;2.83;;;;;;;3.17;86.54;97245.03;5200892;56;20643;-77
2021/11/23 09:27:36;;;;;;;5.93;3.67;;;;;;;3.66;84.67;97247.72;5191786;57;20681;-76
2021/11/23 09:32:39;;;;;;;3.28;2.97;;;;;;;3.88;84.58;97241.00;5201028;56;20137;-78
2021/11/23 09:37:43;;;;;;;3.80;3.03;;;;;;;4.18;82.08;97248.69;5200680;57;20128;-77
2021/11/23 09:42:47;;;;;;;4.25;3.75;;;;;;;4.52;80.99;97243.44;5200513;56;20115;-78
2021/11/23 09:47:50;;;;;;;5.35;4.35;;;;;;;3.70;82.39;97239.47;5200250;57;20136;-78
2021/11/23 09:52:53;;;;;;;5.85;3.95;;;;;;;4.25;81.19;97227.53;5200633;56;20655;-77
2021/11/23 09:57:55;;;;;;;4.15;3.75;;;;;;;4.35;81.98;97234.13;5200286;57;20119;-76
2021/11/23 10:03:01;;;;;;;4.95;3.85;;;;;;;4.18;81.60;97238.50;5200327;56;20229;-77
2021/11/23 10:08:09;;;;;;;3.78;3.35;;;;;;;4.22;81.92;97228.34;5200525;57;20132;-77
2021/11/23 10:13:13;;;;;;;4.32;2.90;;;;;;;4.65;80.31;97228.09;5201123;56;20146;-76
2021/11/23 10:18:21;;;;;;;5.13;3.92;;;;;;;5.12;79.92;97219.13;5201108;57;20137;-79
2021/11/23 10:23:29;;;;;;;4.90;3.93;;;;;;;5.36;79.13;97228.31;5195501;56;20119;-77
2021/11/23 10:28:33;;;;;;;4.28;3.60;;;;;;;5.67;77.63;97219.78;5193328;57;20887;-79
2021/11/23 10:33:38;;;;;;;5.20;4.03;;;;;;;5.92;75.76;97221.50;5196429;56;20123;-76
2021/11/23 10:38:41;;;;;;;4.50;3.97;;;;;;;6.03;75.93;97222.13;5196697;57;20137;-77
2021/11/23 10:43:45;;;;;;;5.78;3.95;;;;;;;6.10;74.37;97227.53;5190182;56;20119;-77
2021/11/23 10:48:56;;;;;;;6.30;4.63;;;;;;;6.24;75.20;97216.41;5189859;57;20128;-77
2021/11/23 10:54:15;;;;;;;6.43;3.67;;;;;;;5.93;75.06;97212.06;5196061;56;20109;-77
2021/11/23 10:59:18;;;;;;;4.15;3.65;;;;;;;5.93;76.04;97212.84;5195619;57;20141;-78
2021/11/23 11:04:21;;;;;;;6.38;4.53;;;;;;;5.89;76.34;97203.88;5199408;56;20141;-77
2021/11/23 11:09:26;;;;;;;4.55;3.55;;;;;;;5.70;78.63;97204.44;5199207;57;20651;-77
2021/11/23 11:14:35;;;;;;;6.70;4.30;;;;;;;5.79;77.63;97191.81;5196427;56;20114;-73
2021/11/23 11:19:45;;;;;;;5.43;4.15;;;;;;;5.78;78.18;97190.28;5192540;57;20124;-77
2021/11/23 11:25:24;;;;;;;5.22;3.80;;;;;;;5.91;78.60;97190.53;5191914;56;20176;-76
2021/11/23 11:30:34;;;;;;;4.53;3.65;;;;;;;6.15;77.85;97189.44;5200690;57;20659;-76
2021/11/23 11:35:42;;;;;;;4.93;4.00;;;;;;;6.48;77.36;97185.06;5200353;56;20119;-76
2021/11/23 11:40:45;;;;;;;7.93;4.47;;;;;;;6.44;75.15;97181.59;5208830;56;20122;-77
2021/11/23 11:45:49;;;;;;;4.68;4.28;;;;;;;7.12;72.76;97171.13;5210063;56;20600;-77
2021/11/23 11:51:35;;;;;;;5.53;4.35;;;;;;;7.14;71.69;97166.75;5200204;57;20893;-77
2021/11/23 11:56:38;;;;;;;3.50;3.15;;;;;;;7.18;73.80;97161.97;5128481;57;20138;-78
2021/11/23 12:01:42;;;;;;;4.50;3.70;;;;;;;7.48;71.99;97155.53;5187010;57;20137;-77
2021/11/23 12:06:53;;;;;;;4.68;3.78;;;;;;;7.77;71.67;97158.50;5201360;56;20209;-76
2021/11/23 12:12:09;;;;;;;5.50;3.83;;;;;;;6.96;71.72;97163.53;5201533;57;20788;-77
2021/11/23 12:17:36;;;;;;;4.68;4.10;;;;;;;7.07;74.19;97168.84;5200642;56;20119;-76
2021/11/23 12:22:43;;;;;;;5.00;4.10;;;;;;;8.11;69.83;97161.75;5200992;56;20149;-77
2021/11/23 12:27:48;;;;;;;3.78;3.47;;;;;;;8.39;68.73;97158.38;5201115;57;20149;-77
2021/11/23 12:32:51;;;;;;;6.25;5.35;;;;;;;7.63;67.01;97156.03;5201301;56;20718;-77
2021/11/23 12:37:53;;;;;;;6.28;4.55;;;;;;;8.10;67.24;97168.44;5201046;57;20644;-78
2021/11/23 12:43:00;;;;;;;4.63;4.18;;;;;;;7.60;70.62;97151.38;5201052;56;20131;-77
2021/11/23 12:48:05;;;;;;;4.65;4.18;;;;;;;7.42;69.37;97154.44;5200966;57;20680;-77
2021/11/23 12:53:17;;;;;;;5.28;4.43;;;;;;;7.38;70.87;97151.00;5201019;56;20716;-77
2021/11/23 12:58:20;;;;;;;5.88;4.40;;;;;;;7.85;69.43;97152.44;5201075;57;20128;-77
2021/11/23 13:03:22;;;;;;;5.30;3.97;;;;;;;7.18;69.39;97141.94;5198557;56;20123;-77
2021/11/23 13:08:24;;;;;;;3.47;3.10;;;;;;;7.48;71.66;97147.28;5198579;57;20146;-77
2021/11/23 13:13:30;;;;;;;4.10;3.47;;;;;;;7.76;70.84;97141.22;5199335;56;20124;-75
2021/11/23 13:18:33;;;;;;;6.07;3.75;;;;;;;7.13;69.94;97134.19;5214546;46;20896;-77
2021/11/23 13:23:48;;;;;;;3.47;3.10;;;;;;;8.22;66.57;97143.00;5241151;56;20140;-76
2021/11/23 13:28:54;;;;;;;4.40;3.80;;;;;;;8.05;66.44;97140.66;5242301;56;20116;-77
2021/11/23 13:34:03;;;;;;;4.28;3.83;;;;;;;7.39;68.53;97133.31;5243463;56;20135;-76
2021/11/23 13:39:06;;;;;;;3.22;2.92;;;;;;;7.36;71.00;97133.38;5239715;56;20869;-77
2021/11/23 13:44:20;;;;;;;4.22;3.60;;;;;;;6.97;70.91;97148.59;5247265;56;20125;-75
2021/11/23 13:49:40;;;;;;;3.38;3.08;;;;;;;6.66;73.50;97135.38;5240945;56;20125;-76
2021/11/23 13:54:55;;;;;;;3.90;3.50;;;;;;;6.66;74.53;97141.66;5242473;56;20117;-77
2021/11/23 14:00:18;;;;;;;3.33;3.03;;;;;;;6.53;76.12;97140.69;5244381;56;20139;-77
2021/11/23 14:05:36;;;;;;;4.35;3.35;;;;;;;6.19;76.75;97137.25;5232563;56;20191;-76
2021/11/23 14:10:47;;;;;;;3.92;3.30;;;;;;;6.22;78.72;97137.19;5241234;56;20232;-76
2021/11/23 14:15:52;;;;;;;3.50;3.20;;;;;;;6.01;78.33;97136.72;5238599;56;20683;-74
2021/11/23 14:20:59;;;;;;;4.00;3.33;;;;;;;5.52;79.72;97141.59;5233564;56;20135;-75
2021/11/23 14:26:13;;;;;;;3.90;3.17;;;;;;;5.41;80.33;97132.72;5241111;56;20684;-76
2021/11/23 14:31:21;;;;;;;4.43;3.53;;;;;;;5.21;81.50;97130.97;5241887;56;20232;-76
2021/11/23 14:36:29;;;;;;;3.40;2.93;;;;;;;5.10;82.28;97136.56;5233273;56;20233;-75
2021/11/23 14:41:32;;;;;;;4.60;3.47;;;;;;;5.04;82.44;97146.44;5242385;56;20516;-76
2021/11/23 14:46:35;;;;;;;4.85;3.90;;;;;;;5.15;81.79;97138.09;5241576;56;20831;-76
2021/11/23 14:51:38;;;;;;;3.63;3.33;;;;;;;4.99;84.36;97142.16;5241465;56;20223;-76
2021/11/23 14:56:41;;;;;;;4.65;3.83;;;;;;;4.88;83.81;97146.97;5232493;56;20117;-76
2021/11/23 15:01:43;;;;;;;4.32;3.30;;;;;;;4.80;84.74;97134.50;5241749;56;20126;-76
2021/11/23 15:06:46;;;;;;;2.92;2.65;;;;;;;4.64;85.25;97145.19;5241440;56;20125;-74
2021/11/23 15:11:48;;;;;;;5.10;3.63;;;;;;;4.45;86.47;97142.22;5241225;56;20126;-75
2021/11/23 15:16:51;;;;;;;3.55;3.15;;;;;;;4.50;86.48;97144.53;5241069;56;20135;-76
2021/11/23 15:21:54;;;;;;;4.05;3.38;;;;;;;4.49;87.66;97143.75;5231842;56;20231;-76
2021/11/23 15:26:56;;;;;;;4.63;3.47;;;;;;;4.56;87.38;97149.19;5240792;56;20143;-76
2021/11/23 15:32:03;;;;;;;4.82;3.53;;;;;;;4.62;85.97;97153.03;5241417;56;20139;-77
2021/11/23 15:37:05;;;;;;;5.03;3.67;;;;;;;4.56;86.75;97156.59;5241057;56;20216;-76
2021/11/23 15:42:08;;;;;;;4.40;3.88;;;;;;;4.51;86.47;97162.50;5239748;56;20144;-76
2021/11/23 15:47:14;;;;;;;7.65;4.60;;;;;;;4.46;86.92;97171.13;5240669;56;20117;-75
2021/11/23 15:52:19;;;;;;;4.85;4.07;;;;;;;4.55;87.56;97164.03;5240600;56;20298;-75
2021/11/23 15:57:23;;;;;;;8.18;4.45;;;;;;;4.71;85.87;97171.72;5231540;56;20125;-74
2021/11/23 16:02:26;;;;;;;4.57;3.60;;;;;;;4.77;86.18;97167.41;5243008;56;20576;-75
2021/11/23 16:07:28;;;;;;;7.55;5.57;;;;;;;4.59;84.52;97158.53;5244114;56;20134;-75
2021/11/23 16:12:31;;;;;;;4.47;4.07;;;;;;;4.63;84.93;97171.03;5243595;56;21104;-75
2021/11/23 16:17:36;;;;;;;5.43;4.35;;;;;;;4.61;85.00;97161.66;5256927;56;20248;-75
2021/11/23 16:22:39;;;;;;;5.03;3.50;;;;;;;4.58;85.98;97167.94;5266068;56;20125;-76
2021/11/23 16:27:48;;;;;;;7.70;5.07;;;;;;;4.56;86.43;97165.59;5236454;56;20239;-75
2021/11/23 16:32:52;;;;;;;5.55;4.07;;;;;;;4.60;86.41;97180.03;5243682;56;20121;-76
2021/11/23 16:37:56;;;;;;;4.85;4.30;;;;;;;4.72;85.26;97185.03;5243512;56;20126;-76
2021/11/23 16:42:59;;;;;;;5.85;4.57;;;;;;;4.76;84.90;97188.53;5243015;56;20126;-75
2021/11/23 16:48:01;;;;;;;6.68;4.68;;;;;;;4.75;84.74;97191.66;5243204;56;20121;-76
2021/11/23 16:53:04;;;;;;;5.97;4.50;;;;;;;4.71;84.98;97191.69;5242959;56;20099;-75
2021/11/23 16:58:06;;;;;;;5.63;4.53;;;;;;;4.78;85.41;97186.16;5234098;56;20692;-76
2021/11/23 17:03:09;;;;;;;6.47;5.15;;;;;;;4.73;85.18;97177.56;5242791;56;20235;-74
2021/11/23 17:08:12;;;;;;;6.22;4.55;;;;;;;4.64;85.88;97182.72;5233587;56;20226;-74
2021/11/23 17:13:14;;;;;;;5.78;4.68;;;;;;;4.66;86.29;97174.91;5241982;56;20122;-75
2021/11/23 17:18:17;;;;;;;5.72;4.63;;;;;;;4.66;86.68;97180.41;5241935;56;20130;-76
2021/11/23 17:23:20;;;;;;;7.82;4.78;;;;;;;4.73;86.66;97180.31;5246837;56;20161;-76
2021/11/23 17:28:22;;;;;;;9.55;5.30;;;;;;;4.70;86.42;97181.94;5256852;56;20130;-76
2021/11/23 17:33:25;;;;;;;6.38;4.90;;;;;;;4.73;85.98;97183.06;5252252;56;20252;-76
2021/11/23 17:38:27;;;;;;;6.93;4.30;;;;;;;4.75;85.53;97180.72;5251963;56;20126;-76
2021/11/23 17:43:30;;;;;;;5.95;5.10;;;;;;;4.76;85.96;97179.53;5251682;56;20682;-75
2021/11/23 17:48:32;;;;;;;5.97;4.55;;;;;;;4.68;86.69;97173.31;5245074;56;20670;-75
2021/11/23 17:53:35;;;;;;;8.73;5.43;;;;;;;4.72;86.28;97173.31;5240439;56;20637;-75
2021/11/23 17:58:39;;;;;;;6.65;5.30;;;;;;;4.68;84.71;97170.56;5237446;56;20105;-76
2021/11/23 18:03:42;;;;;;;6.18;5.25;;;;;;;4.51;86.27;97165.25;5238124;56;20140;-73
2021/11/23 18:08:46;;;;;;;7.47;5.30;;;;;;;4.55;86.70;97161.28;5241555;56;20130;-76
2021/11/23 18:13:48;;;;;;;6.18;5.28;;;;;;;4.58;86.53;97176.13;5241971;56;20121;-76
2021/11/23 18:18:51;;;;;;;6.65;5.30;;;;;;;4.45;86.87;97166.84;5241357;56;20156;-75
2021/11/23 18:23:53;;;;;;;8.00;6.05;;;;;;;4.52;85.04;97166.81;5246252;56;20134;-76
2021/11/23 18:28:56;;;;;;;8.55;6.38;;;;;;;4.33;85.72;97163.41;5230915;56;20233;-75
2021/11/23 18:33:58;;;;;;;6.88;5.35;;;;;;;4.23;85.72;97158.00;5231617;56;20674;-74
2021/11/23 18:39:01;;;;;;;5.78;4.78;;;;;;;3.88;87.11;97158.19;5239918;56;20129;-75
2021/11/23 18:44:12;;;;;;;7.63;4.68;;;;;;;3.48;88.57;97162.28;5240911;56;20567;-75
2021/11/23 18:49:14;;;;;;;5.50;4.53;;;;;;;3.28;90.03;97148.25;5241262;56;20659;-76
2021/11/23 18:54:17;;;;;;;4.45;4.05;;;;;;;3.05;90.96;97156.13;5241118;56;20112;-75
2021/11/23 18:59:19;;;;;;;7.47;5.60;;;;;;;2.88;91.82;97157.69;5241322;56;20108;-75
2021/11/23 19:04:21;;;;;;;5.00;4.53;;;;;;;2.68;93.06;97161.22;5237428;56;20215;-73
2021/11/23 19:09:24;;;;;;;7.05;5.65;;;;;;;2.61;94.00;97164.72;5234778;56;20112;-73
2021/11/23 19:14:26;;;;;;;6.00;4.60;;;;;;;2.52;94.42;97161.59;5238318;56;20112;-74
2021/11/23 19:19:29;;;;;;;6.97;5.32;;;;;;;2.38;94.66;97160.81;5240232;56;20648;-76
2021/11/23 19:24:32;;;;;;;7.95;4.68;;;;;;;2.24;95.88;97160.81;5240023;56;20577;-76
2021/11/23 19:29:34;;;;;;;5.35;3.75;;;;;;;2.19;96.42;97151.81;5239914;56;20121;-76
2021/11/23 19:34:36;;;;;;;4.10;3.70;;;;;;;2.11;96.70;97146.75;5241073;56;20131;-76
2021/11/23 19:39:39;;;;;;;8.63;4.50;;;;;;;1.96;97.00;97150.63;5237833;56;20117;-75
2021/11/23 19:44:41;;;;;;;5.85;4.75;;;;;;;1.98;98.35;97151.00;5234024;56;20113;-75
2021/11/23 19:49:45;;;;;;;5.57;4.03;;;;;;;1.93;97.67;97151.38;5235293;56;20576;-75
2021/11/23 19:54:47;;;;;;;6.97;4.82;;;;;;;1.94;97.98;97150.22;5234695;56;20760;-75
2021/11/23 19:59:50;;;;;;;6.45;4.70;;;;;;;1.83;97.61;97147.44;5233248;56;20174;-75
2021/11/23 20:04:52;;;;;;;5.95;4.00;;;;;;;1.73;97.49;97150.16;5239252;56;20126;-75
2021/11/23 20:09:55;;;;;;;5.90;4.50;;;;;;;1.62;97.98;97143.88;5236120;56;20113;-75
2021/11/23 20:14:57;;;;;;;4.82;3.80;;;;;;;1.60;98.44;97146.22;5238678;56;20112;-74
2021/11/23 20:19:59;;;;;;;4.93;3.67;;;;;;;1.49;98.73;97143.47;5234266;56;20131;-75
2021/11/23 20:25:03;;;;;;;4.50;4.03;;;;;;;1.42;99.15;97143.44;5234730;56;20117;-74
2021/11/23 20:30:08;;;;;;;6.55;4.65;;;;;;;1.39;98.85;97142.25;5239143;56;20271;-75
2021/11/23 20:35:12;;;;;;;5.10;4.43;;;;;;;1.20;98.49;97131.63;5240918;56;20121;-76
2021/11/23 20:40:14;;;;;;;7.90;4.47;;;;;;;1.08;99.31;97134.72;5239479;56;20127;-75
2021/11/23 20:45:17;;;;;;;5.07;4.03;;;;;;;1.02;99.90;97122.59;5232392;56;20718;-74
2021/11/23 20:50:20;;;;;;;4.65;4.20;;;;;;;0.94;99.56;97121.00;5242613;56;20756;-74
2021/11/23 20:55:23;;;;;;;5.07;4.10;;;;;;;0.86;99.80;97127.56;5236101;56;20118;-74
2021/11/23 21:00:28;;;;;;;7.65;3.83;;;;;;;0.86;100.00;97126.81;5233887;56;20157;-74
2021/11/23 21:05:32;;;;;;;6.22;3.55;;;;;;;0.77;100.00;97118.19;5242144;56;20112;-74
2021/11/23 21:10:38;;;;;;;6.30;4.95;;;;;;;0.70;99.86;97119.69;5254749;56;20113;-74
2021/11/23 21:15:41;;;;;;;5.03;3.55;;;;;;;0.60;100.00;97127.78;5235978;56;20141;-75
2021/11/23 21:20:43;;;;;;;6.40;4.35;;;;;;;0.60;100.00;97117.69;5232916;56;20136;-74
2021/11/23 21:25:45;;;;;;;4.40;3.42;;;;;;;0.55;100.00;97122.69;5230972;56;20109;-74
2021/11/23 21:30:48;;;;;;;6.07;3.85;;;;;;;0.52;100.00;97118.03;5231378;56;20572;-75
2021/11/23 21:35:50;;;;;;;5.63;3.97;;;;;;;0.46;100.00;97119.50;5236654;56;20563;-74
2021/11/23 21:40:52;;;;;;;6.90;4.72;;;;;;;0.49;100.00;97124.19;5242036;56;20135;-75
2021/11/23 21:50:57;;;;;;;6.15;3.58;;;;;;;0.34;100.00;97111.66;5239018;56;20126;-74
2021/11/23 21:56:00;;;;;;;7.18;4.70;;;;;;;0.37;100.00;97111.69;5227297;56;20131;-75
2021/11/23 22:01:04;;;;;;;5.75;4.13;;;;;;;0.34;100.00;97111.66;5215148;56;20113;-75
2021/11/23 22:06:07;;;;;;;6.38;4.78;;;;;;;0.36;100.00;97110.09;5207767;56;20110;-74
2021/11/23 22:11:14;;;;;;;4.60;3.53;;;;;;;0.26;100.00;97110.81;5220115;56;20126;-75
2021/11/23 22:16:20;;;;;;;3.83;3.47;;;;;;;0.20;100.00;97108.81;5232893;56;20122;-75
2021/11/23 22:21:23;;;;;;;5.97;3.90;;;;;;;0.21;100.00;97113.09;5231499;56;20532;-74
2021/11/23 22:26:25;;;;;;;4.88;4.05;;;;;;;0.11;100.00;97098.28;5226892;56;20153;-75
2021/11/23 22:31:27;;;;;;;7.63;3.55;;;;;;;0.07;100.00;97102.13;5230870;56;20126;-75
2021/11/23 22:36:30;;;;;;;4.80;3.65;;;;;;;0.02;100.00;97107.88;5233268;56;20289;-74
2021/11/23 22:41:32;;;;;;;3.67;3.00;;;;;;;-0.11;100.00;97105.44;5238614;56;20108;-75
2021/11/23 22:46:34;;;;;;;3.58;3.05;;;;;;;-0.14;100.00;97097.25;5236402;56;20117;-75
2021/11/23 22:51:37;;;;;;;4.93;3.35;;;;;;;-0.25;99.83;97091.72;5232165;56;20546;-75
2021/11/23 22:56:40;;;;;;;5.30;3.53;;;;;;;-0.30;100.00;97077.69;5238503;56;20095;-75
2021/11/23 23:01:44;;;;;;;4.70;3.65;;;;;;;-0.30;99.88;97077.69;5242161;56;20108;-76
2021/11/23 23:06:46;;;;;;;3.67;2.80;;;;;;;-0.35;100.00;97073.38;5237810;56;20112;-75
2021/11/23 23:11:49;;;;;;;4.28;3.10;;;;;;;-0.45;100.00;97065.16;5237165;56;20152;-75
2021/11/23 23:16:52;;;;;;;4.25;3.45;;;;;;;-0.35;100.00;97065.25;5237335;56;20135;-75
2021/11/23 23:21:54;;;;;;;5.35;4.03;;;;;;;-0.42;100.00;97058.94;5234115;56;20134;-75
2021/11/23 23:27:08;;;;;;;4.10;3.22;;;;;;;-0.44;100.00;97058.53;5236707;56;20108;-76
2021/11/23 23:32:10;;;;;;;7.72;4.38;;;;;;;-0.48;100.00;97046.88;5236983;56;20162;-75
2021/11/23 23:37:13;;;;;;;3.67;3.35;;;;;;;-0.51;100.00;97045.69;5233332;56;20095;-75
2021/11/23 23:42:15;;;;;;;4.13;3.33;;;;;;;-0.44;100.00;97048.47;5237166;56;20126;-75
2021/11/23 23:47:18;;;;;;;3.80;2.75;;;;;;;-0.43;100.00;97050.03;5234999;56;20132;-75
2021/11/23 23:52:20;;;;;;;5.57;4.15;;;;;;;-0.68;100.00;97043.59;5235517;56;20118;-76
2021/11/23 23:57:23;;;;;;;5.13;3.75;;;;;;;-0.66;100.00;97041.28;5235846;56;20108;-75
